Time;durP1;ratioP1;P1;durP2;ratioP2;P2;SDS_P1;SDS_P2;PMS_P1;PMS_P2;Temp;Humidity;BMP_temperature;BMP_pressure;BME280_temperature;BME280_humidity;BME280_pressure;Samples;Min_cycle;Max_cycle;Signal;HPM_P1;HPM_P2
2021/10/22 00:01:25;;;;;;;12.58;6.00;;;;;;;12.76;100.00;100560.28;1646895;85;21068;-57
2021/10/22 00:03:52;;;;;;;12.80;5.58;;;;;;;12.73;100.00;100557.73;1636278;85;21021;-57
2021/10/22 00:06:19;;;;;;;10.32;5.35;;;;;;;12.70;100.00;100565.92;1624456;86;21057;-54
2021/10/22 00:08:46;;;;;;;16.65;6.15;;;;;;;12.72;100.00;100569.45;1647338;87;21590;-57
2021/10/22 00:11:13;;;;;;;14.00;6.20;;;;;;;12.70;100.00;100571.30;1639896;85;21732;-58
2021/10/22 00:13:40;;;;;;;12.70;6.10;;;;;;;12.74;100.00;100573.79;1628027;85;21109;-57
2021/10/22 00:16:07;;;;;;;11.10;5.83;;;;;;;12.69;100.00;100574.94;1652386;85;21041;-57
2021/10/22 00:18:34;;;;;;;12.07;5.97;;;;;;;12.64;100.00;100575.64;1656353;85;21610;-57
2021/10/22 00:21:01;;;;;;;14.23;6.33;;;;;;;12.61;100.00;100569.95;1634952;85;22380;-58
2021/10/22 00:23:29;;;;;;;16.20;5.90;;;;;;;12.63;100.00;100579.27;1642267;85;21144;-56
2021/10/22 00:25:57;;;;;;;11.90;5.90;;;;;;;12.59;100.00;100568.66;1655148;85;21518;-58
2021/10/22 00:28:24;;;;;;;14.15;5.85;;;;;;;12.58;100.00;100576.33;1623875;86;21076;-57
2021/10/22 00:30:50;;;;;;;12.35;5.40;;;;;;;12.57;100.00;100562.94;1647904;85;21111;-58
2021/10/22 00:33:17;;;;;;;11.70;6.60;;;;;;;12.59;100.00;100556.56;1639432;85;21534;-57
2021/10/22 00:35:46;;;;;;;10.28;5.37;;;;;;;12.56;100.00;100559.39;1647650;84;21100;-57
2021/10/22 00:38:13;;;;;;;11.90;5.65;;;;;;;12.52;99.85;100560.48;1658709;84;21028;-58
2021/10/22 00:40:40;;;;;;;12.33;5.67;;;;;;;12.49;99.86;100558.41;1685600;83;21036;-59
2021/10/22 00:43:07;;;;;;;13.88;6.05;;;;;;;12.43;99.76;100559.55;1674764;84;21000;-58
2021/10/22 00:45:34;;;;;;;13.15;6.25;;;;;;;12.40;99.97;100552.97;1672897;83;21077;-58
2021/10/22 00:48:01;;;;;;;10.58;5.92;;;;;;;12.40;100.00;100557.00;1677423;83;21501;-57
2021/10/22 00:50:29;;;;;;;10.08;5.40;;;;;;;12.34;99.74;100546.54;1672987;84;21382;-57
2021/10/22 00:52:56;;;;;;;16.67;6.08;;;;;;;12.27;100.00;100546.83;1684997;84;20878;-57
2021/10/22 00:55:23;;;;;;;11.60;6.10;;;;;;;12.22;100.00;100545.28;1679299;84;21088;-58
2021/10/22 00:57:50;;;;;;;10.65;5.95;;;;;;;12.17;100.00;100539.65;1668071;84;21143;-57
2021/10/22 01:00:17;;;;;;;15.40;6.03;;;;;;;12.18;100.00;100537.82;1672555;84;21044;-57
2021/10/22 01:02:44;;;;;;;14.73;5.85;;;;;;;12.21;100.00;100548.42;1636140;85;21072;-57
2021/10/22 01:05:14;;;;;;;8.95;5.75;;;;;;;12.22;100.00;100542.59;1672332;85;21073;-58
2021/10/22 01:07:41;;;;;;;13.05;6.12;;;;;;;12.18;100.00;100543.20;1640660;86;21075;-58
2021/10/22 01:10:10;;;;;;;11.70;6.08;;;;;;;12.10;100.00;100546.71;1683878;83;21152;-58
2021/10/22 01:12:37;;;;;;;12.05;5.80;;;;;;;12.02;100.00;100538.50;1680306;84;21091;-57
2021/10/22 01:15:05;;;;;;;11.40;6.45;;;;;;;12.03;100.00;100538.05;1677168;84;21534;-57
2021/10/22 01:17:43;;;;;;;13.30;6.37;;;;;;;12.01;100.00;100538.09;1684866;84;22082;-57
2021/10/22 01:20:18;;;;;;;13.53;6.50;;;;;;;12.00;100.00;100534.98;1695130;83;21005;-57
2021/10/22 01:22:47;;;;;;;9.50;6.28;;;;;;;12.01;100.00;100536.75;1678126;84;22207;-58
2021/10/22 01:25:17;;;;;;;14.98;6.08;;;;;;;12.00;100.00;100534.98;1684567;84;21052;-57
2021/10/22 01:27:44;;;;;;;9.38;6.33;;;;;;;12.01;100.00;100536.75;1687319;83;21134;-57
2021/10/22 01:30:13;;;;;;;12.18;6.40;;;;;;;12.00;100.00;100541.70;1680382;84;21479;-57
2021/10/22 01:32:40;;;;;;;12.13;7.00;;;;;;;11.95;100.00;100552.27;1689366;84;21121;-57
2021/10/22 01:35:09;;;;;;;13.28;7.25;;;;;;;11.95;100.00;100553.13;1627236;85;21166;-56
2021/10/22 01:37:36;;;;;;;15.18;6.85;;;;;;;11.95;100.00;100555.81;1671275;85;21469;-56
2021/10/22 01:40:06;;;;;;;14.38;6.97;;;;;;;11.94;100.00;100563.47;1662979;85;22267;-57
2021/10/22 01:42:34;;;;;;;15.32;6.97;;;;;;;11.95;100.00;100552.27;1661982;85;21560;-57
2021/10/22 01:45:02;;;;;;;13.80;7.00;;;;;;;11.93;100.00;100546.05;1681949;85;21588;-57
2021/10/22 01:47:29;;;;;;;12.47;6.90;;;;;;;11.90;100.00;100549.77;1649729;85;21163;-57
2021/10/22 01:49:56;;;;;;;14.90;7.08;;;;;;;11.85;100.00;100546.42;1642184;85;21136;-57
2021/10/22 01:52:24;;;;;;;14.98;7.83;;;;;;;11.80;100.00;100548.41;1671820;85;21131;-57
2021/10/22 01:54:53;;;;;;;16.10;6.60;;;;;;;11.75;100.00;100548.14;1657791;85;21508;-57
2021/10/22 01:57:20;;;;;;;13.22;6.28;;;;;;;11.74;100.00;100549.57;1632595;85;21223;-59
2021/10/22 01:59:49;;;;;;;14.13;7.17;;;;;;;11.71;100.00;100548.33;1659498;85;21976;-57
2021/10/22 02:02:16;;;;;;;13.10;6.53;;;;;;;11.68;100.00;100560.10;1679765;85;21028;-57
2021/10/22 02:04:43;;;;;;;13.65;7.58;;;;;;;11.66;100.00;100561.98;1667089;85;21636;-57
2021/10/22 02:07:10;;;;;;;11.50;6.33;;;;;;;11.65;100.00;100569.64;1652638;85;21072;-59
2021/10/22 02:09:38;;;;;;;16.37;7.47;;;;;;;11.64;100.00;100567.89;1674507;85;21084;-57
2021/10/22 02:12:06;;;;;;;10.98;7.17;;;;;;;11.60;100.00;100568.93;1661693;85;21656;-57
2021/10/22 02:14:33;;;;;;;12.47;7.12;;;;;;;11.57;100.00;100572.64;1653089;84;21459;-57
2021/10/22 02:17:00;;;;;;;11.35;7.20;;;;;;;11.53;100.00;100587.14;1675105;85;21065;-58
2021/10/22 02:19:28;;;;;;;12.45;7.42;;;;;;;11.54;100.00;100587.99;1663058;85;21662;-57
2021/10/22 02:21:56;;;;;;;12.37;7.22;;;;;;;11.52;100.00;100593.45;1646129;85;21057;-57
2021/10/22 02:24:23;;;;;;;14.65;7.20;;;;;;;11.55;100.00;100603.16;1675658;85;21151;-57
2021/10/22 02:26:50;;;;;;;13.40;7.62;;;;;;;11.59;100.00;100596.72;1646192;85;21068;-57
2021/10/22 02:29:17;;;;;;;13.88;7.90;;;;;;;11.60;100.00;100590.41;1664744;85;21093;-57
2021/10/22 02:31:45;;;;;;;12.85;7.22;;;;;;;11.58;100.00;100593.18;1653905;85;21133;-58
2021/10/22 02:34:12;;;;;;;13.28;8.23;;;;;;;11.53;100.00;100598.33;1650850;85;21094;-58
2021/10/22 02:36:39;;;;;;;12.55;7.50;;;;;;;11.48;100.00;100603.02;1640426;85;21160;-57
2021/10/22 02:39:06;;;;;;;12.20;8.03;;;;;;;11.45;100.00;100606.24;1641835;86;21023;-57
2021/10/22 02:41:33;;;;;;;15.15;7.75;;;;;;;11.43;100.00;100605.44;1642220;86;21435;-57
2021/10/22 02:44:00;;;;;;;13.05;7.35;;;;;;;11.42;100.00;100598.32;1637418;86;21057;-57
2021/10/22 02:46:27;;;;;;;13.80;7.92;;;;;;;11.41;100.00;100588.52;1638420;86;21137;-57
2021/10/22 02:48:56;;;;;;;16.40;7.97;;;;;;;11.36;100.00;100583.78;1639339;86;21471;-58
2021/10/22 02:51:23;;;;;;;12.95;7.58;;;;;;;11.31;100.00;100580.42;1656088;85;21065;-54
2021/10/22 02:53:50;;;;;;;13.13;8.15;;;;;;;11.31;100.00;100589.81;1636426;86;21840;-54
2021/10/22 02:56:18;;;;;;;17.17;8.25;;;;;;;11.31;100.00;100583.11;1632010;86;22429;-54
2021/10/22 02:58:45;;;;;;;17.25;8.48;;;;;;;11.36;100.00;100593.17;1649429;84;21064;-53
2021/10/22 03:01:12;;;;;;;17.30;8.15;;;;;;;11.38;100.00;100593.13;1676920;84;21180;-57
2021/10/22 03:03:39;;;;;;;15.10;7.70;;;;;;;11.37;100.00;100597.61;1684524;84;21016;-58
2021/10/22 03:06:06;;;;;;;17.52;9.55;;;;;;;11.36;100.00;100598.55;1675910;84;21005;-56
2021/10/22 03:08:33;;;;;;;15.05;8.58;;;;;;;11.30;100.00;100602.38;1665236;84;21061;-56
2021/10/22 03:11:00;;;;;;;15.75;7.85;;;;;;;11.29;100.00;100595.27;1649286;84;21128;-57
2021/10/22 03:13:27;;;;;;;17.55;8.93;;;;;;;11.29;99.96;100605.11;1679064;84;21944;-58
2021/10/22 03:15:56;;;;;;;15.32;8.58;;;;;;;11.25;99.84;100600.81;1665985;84;21036;-58
2021/10/22 03:18:25;;;;;;;15.60;8.55;;;;;;;11.17;99.72;100599.31;1662519;84;21123;-58
2021/10/22 03:20:52;;;;;;;13.25;8.68;;;;;;;11.14;99.91;100599.41;1662425;84;21101;-58
2021/10/22 03:23:19;;;;;;;15.65;8.70;;;;;;;11.13;100.00;100601.69;1671295;84;21061;-54
2021/10/22 03:25:49;;;;;;;15.65;8.55;;;;;;;11.13;100.00;100597.66;1651086;84;21079;-54
2021/10/22 03:28:16;;;;;;;17.40;8.43;;;;;;;11.15;100.00;100593.11;1684539;84;21024;-54
2021/10/22 03:30:43;;;;;;;14.68;8.83;;;;;;;11.14;99.87;100591.36;1659220;84;21618;-54
2021/10/22 03:33:11;;;;;;;13.53;9.40;;;;;;;11.09;99.79;100591.16;1654030;85;21085;-55
2021/10/22 03:35:38;;;;;;;16.23;8.88;;;;;;;11.07;99.89;100601.09;1662113;83;21124;-54
2021/10/22 03:38:07;;;;;;;14.35;8.63;;;;;;;11.03;100.00;100598.98;1705739;83;20997;-54
2021/10/22 03:40:34;;;;;;;14.30;9.10;;;;;;;11.01;99.96;100598.17;1697352;83;21088;-55
2021/10/22 03:43:00;;;;;;;13.20;8.50;;;;;;;10.94;99.79;100602.00;1688712;83;22219;-54
2021/10/22 03:45:29;;;;;;;13.83;8.65;;;;;;;10.90;100.00;100599.93;1679961;84;21092;-54
2021/10/22 03:47:56;;;;;;;14.87;8.93;;;;;;;10.86;100.00;100591.12;1677250;83;21115;-54
2021/10/22 03:50:25;;;;;;;15.72;8.88;;;;;;;10.82;100.00;100604.24;1665039;84;21108;-54
2021/10/22 03:52:53;;;;;;;14.80;9.13;;;;;;;10.84;100.00;100609.08;1685669;84;21173;-54
2021/10/22 03:55:20;;;;;;;17.25;9.68;;;;;;;10.83;100.00;100600.63;1688961;83;21446;-53
2021/10/22 03:57:47;;;;;;;15.95;9.58;;;;;;;10.85;100.00;100610.83;1682112;84;21048;-53
2021/10/22 04:00:15;;;;;;;13.90;8.90;;;;;;;10.84;100.00;100605.05;1682992;83;21080;-54
2021/10/22 04:02:42;;;;;;;13.58;9.03;;;;;;;10.83;100.00;100610.02;1664693;85;21638;-55
2021/10/22 04:05:10;;;;;;;16.65;9.40;;;;;;;10.80;100.00;100609.25;1681924;83;21107;-53
2021/10/22 04:07:37;;;;;;;13.80;9.03;;;;;;;10.78;100.00;100613.34;1677613;83;21039;-55
2021/10/22 04:10:06;;;;;;;18.82;10.40;;;;;;;10.79;100.00;100602.13;1678864;83;21064;-53
2021/10/22 04:12:35;;;;;;;20.68;11.40;;;;;;;10.75;100.00;100606.28;1668862;84;21034;-54
2021/10/22 04:15:03;;;;;;;26.37;12.98;;;;;;;10.75;100.00;100616.15;1653865;85;21490;-54
2021/10/22 04:17:32;;;;;;;19.25;12.47;;;;;;;10.76;100.00;100612.53;1658688;85;21117;-53
2021/10/22 04:20:00;;;;;;;28.83;13.20;;;;;;;10.77;100.00;100622.33;1655356;84;22277;-53
2021/10/22 04:22:27;;;;;;;34.75;15.43;;;;;;;10.80;100.00;100622.20;1651138;84;21091;-54
2021/10/22 04:24:54;;;;;;;41.35;19.75;;;;;;;10.79;100.00;100616.87;1685992;83;21041;-55
2021/10/22 04:27:21;;;;;;;38.20;17.35;;;;;;;10.82;99.96;100629.72;1683920;83;21463;-53
2021/10/22 04:29:49;;;;;;;29.45;15.08;;;;;;;10.82;99.62;100633.74;1682227;83;21562;-57
2021/10/22 04:32:17;;;;;;;26.55;12.98;;;;;;;10.83;99.49;100637.28;1664101;85;20970;-58
2021/10/22 04:34:44;;;;;;;16.32;10.58;;;;;;;10.84;99.18;100638.58;1679569;84;21575;-58
2021/10/22 04:37:29;;;;;;;18.50;10.82;;;;;;;10.85;98.81;100644.84;1676537;85;20993;-58
2021/10/22 04:42:42;;;;;;;19.67;10.60;;;;;;;10.88;98.64;100638.86;1668344;85;21024;-58
2021/10/22 04:45:10;;;;;;;18.40;11.15;;;;;;;10.96;98.65;100643.09;1658438;85;21109;-58
2021/10/22 04:47:39;;;;;;;15.70;10.85;;;;;;;11.10;98.98;100651.45;1642750;85;21128;-57
2021/10/22 04:50:08;;;;;;;20.77;11.80;;;;;;;11.41;98.95;100639.98;1621559;86;21078;-58
2021/10/22 04:52:36;;;;;;;17.87;11.40;;;;;;;11.70;97.86;100647.30;1635710;86;21126;-58
2021/10/22 04:55:05;;;;;;;19.37;10.68;;;;;;;11.90;96.38;100641.11;1628673;86;21443;-57
2021/10/22 04:57:32;;;;;;;19.90;11.05;;;;;;;12.15;95.49;100654.87;1640153;86;21112;-58
2021/10/22 04:59:59;;;;;;;18.65;10.28;;;;;;;12.49;94.63;100648.02;1643209;86;21160;-57
2021/10/22 05:02:26;;;;;;;16.12;10.20;;;;;;;12.78;93.15;100663.30;1654658;85;21184;-59
2021/10/22 05:04:53;;;;;;;19.50;10.85;;;;;;;12.87;91.48;100662.02;1616909;86;21058;-58
2021/10/22 05:07:20;;;;;;;19.23;10.58;;;;;;;12.90;90.60;100670.80;1626222;86;21563;-58
2021/10/22 05:09:47;;;;;;;18.05;10.15;;;;;;;12.93;89.78;100668.91;1655091;84;21323;-59
2021/10/22 05:12:16;;;;;;;16.25;10.70;;;;;;;12.90;88.91;100680.70;1665085;84;21482;-58
2021/10/22 05:14:43;;;;;;;17.30;10.40;;;;;;;12.93;88.60;100687.74;1662652;84;21112;-57
2021/10/22 05:17:09;;;;;;;19.70;10.13;;;;;;;12.94;88.11;100694.91;1648616;84;21241;-59
2021/10/22 05:19:38;;;;;;;14.73;9.88;;;;;;;12.98;88.01;100701.88;1658659;84;21092;-57
2021/10/22 05:22:05;;;;;;;23.27;11.68;;;;;;;13.09;87.79;100707.63;1665115;84;21029;-58
2021/10/22 05:24:33;;;;;;;18.52;10.40;;;;;;;13.20;87.08;100708.97;1663821;84;21592;-58
2021/10/22 05:27:00;;;;;;;16.85;11.40;;;;;;;13.29;86.61;100705.83;1660210;84;21100;-58
2021/10/22 05:29:27;;;;;;;29.37;11.12;;;;;;;13.40;86.10;100718.33;1671426;84;21148;-58
2021/10/22 05:31:54;;;;;;;20.17;11.70;;;;;;;13.52;85.54;100718.70;1663025;84;21692;-58
2021/10/22 05:34:21;;;;;;;21.95;11.50;;;;;;;13.61;84.88;100725.02;1669061;84;20997;-59
2021/10/22 05:36:52;;;;;;;19.32;10.80;;;;;;;13.68;84.17;100723.76;1674391;84;21084;-59
2021/10/22 05:39:19;;;;;;;18.67;11.03;;;;;;;13.75;83.82;100729.23;1665447;84;21018;-58
2021/10/22 05:41:48;;;;;;;18.25;11.65;;;;;;;13.85;83.34;100729.66;1650176;84;21165;-58
2021/10/22 05:44:18;;;;;;;19.52;11.43;;;;;;;13.92;82.71;100728.89;1662478;84;21072;-58
2021/10/22 05:46:46;;;;;;;17.92;10.93;;;;;;;13.99;82.41;100735.72;1665887;84;21092;-58
2021/10/22 05:49:13;;;;;;;19.92;10.85;;;;;;;14.05;81.80;100729.16;1670280;84;21123;-58
2021/10/22 05:51:39;;;;;;;17.23;10.98;;;;;;;14.10;81.30;100737.02;1663953;84;21081;-58
2021/10/22 05:54:06;;;;;;;17.45;11.25;;;;;;;14.10;81.16;100735.18;1657736;84;21169;-55
2021/10/22 05:56:34;;;;;;;15.45;10.38;;;;;;;14.16;81.09;100737.59;1676974;84;21293;-56
2021/10/22 05:59:01;;;;;;;15.20;10.60;;;;;;;14.23;80.81;100739.48;1667391;84;21040;-56
2021/10/22 06:01:28;;;;;;;17.12;9.90;;;;;;;14.31;80.66;100741.33;1671971;84;21472;-56
2021/10/22 06:03:57;;;;;;;17.90;10.78;;;;;;;14.44;80.22;100748.77;1659913;84;44946;-54
2021/10/22 06:06:25;;;;;;;19.32;11.48;;;;;;;14.53;79.86;100759.11;1661162;84;22299;-55
2021/10/22 06:08:53;;;;;;;15.48;10.90;;;;;;;14.61;79.57;100766.31;1663178;84;21148;-55
2021/10/22 06:11:21;;;;;;;18.07;10.32;;;;;;;14.73;79.34;100770.73;1674084;84;21075;-54
2021/10/22 06:13:49;;;;;;;16.25;9.70;;;;;;;14.86;78.76;100769.11;1665448;84;21677;-55
2021/10/22 06:16:18;;;;;;;18.45;10.13;;;;;;;14.99;78.13;100765.28;1664924;84;21541;-55
2021/10/22 06:18:52;;;;;;;17.67;11.12;;;;;;;15.09;77.42;100775.11;1660845;84;21215;-55
2021/10/22 06:21:28;;;;;;;12.37;9.50;;;;;;;15.21;77.04;100765.97;1660683;84;21029;-54
2021/10/22 06:24:05;;;;;;;16.27;9.70;;;;;;;15.32;76.43;100769.83;1653150;84;21087;-55
2021/10/22 06:26:27;;;;;;;14.85;10.20;;;;;;;15.46;75.87;100774.93;1638119;85;21550;-55
2021/10/22 06:28:54;;;;;;;14.60;9.75;;;;;;;15.57;75.02;100777.03;1656622;84;21140;-54
2021/10/22 06:31:23;;;;;;;15.95;10.35;;;;;;;15.69;74.50;100776.83;1653143;84;21159;-55
2021/10/22 06:33:51;;;;;;;14.35;9.75;;;;;;;15.83;73.98;100780.13;1653915;84;21045;-53
2021/10/22 06:36:18;;;;;;;18.12;10.55;;;;;;;15.98;73.35;100787.38;1628704;86;21623;-55
2021/10/22 06:38:45;;;;;;;18.95;10.78;;;;;;;16.15;72.53;100793.66;1633352;86;21072;-54
2021/10/22 06:41:12;;;;;;;18.70;10.20;;;;;;;16.28;71.89;100791.99;1661826;84;21552;-58
2021/10/22 06:43:40;;;;;;;16.23;9.93;;;;;;;16.42;71.34;100795.23;1659263;84;21184;-59
2021/10/22 06:46:08;;;;;;;17.07;9.70;;;;;;;16.59;70.98;100798.78;1659249;84;21085;-58
2021/10/22 06:48:36;;;;;;;13.10;9.68;;;;;;;16.74;70.55;100795.63;1632345;86;21679;-58
2021/10/22 06:51:04;;;;;;;13.88;10.10;;;;;;;16.86;69.72;100794.87;1662314;84;21162;-55
2021/10/22 06:53:34;;;;;;;16.85;9.33;;;;;;;16.97;68.93;100798.77;1624171;86;21455;-57
2021/10/22 06:56:01;;;;;;;11.48;9.08;;;;;;;17.09;68.02;100806.16;1661650;85;21822;-55
2021/10/22 06:58:28;;;;;;;11.45;8.93;;;;;;;17.18;67.41;100802.91;1665269;85;21448;-55
2021/10/22 07:00:54;;;;;;;13.98;9.45;;;;;;;17.30;66.76;100805.33;1664552;85;21084;-55
2021/10/22 07:03:28;;;;;;;17.12;9.60;;;;;;;17.42;66.17;100800.97;1662698;84;21776;-55
2021/10/22 07:08:25;;;;;;;14.83;10.25;;;;;;;17.69;64.88;100808.81;1654175;85;21888;-58
2021/10/22 07:10:52;;;;;;;16.30;10.15;;;;;;;17.82;64.49;100810.23;1659338;84;21136;-58
2021/10/22 07:13:20;;;;;;;15.00;10.13;;;;;;;17.91;64.14;100798.78;1660761;84;21100;-54
2021/10/22 07:15:48;;;;;;;13.72;9.65;;;;;;;18.02;63.65;100800.82;1662361;84;21099;-55
2021/10/22 07:18:15;;;;;;;12.18;9.50;;;;;;;18.15;63.29;100806.30;1661489;85;21053;-54
2021/10/22 07:20:42;;;;;;;12.65;9.40;;;;;;;18.27;62.69;100809.58;1663905;84;21112;-54
2021/10/22 07:23:11;;;;;;;17.10;9.28;;;;;;;18.39;61.81;100809.71;1662472;85;21101;-57
2021/10/22 07:25:40;;;;;;;12.15;9.13;;;;;;;18.51;61.32;100814.33;1660730;85;21151;-57
2021/10/22 07:28:20;;;;;;;14.47;9.48;;;;;;;18.61;60.29;100816.78;1635486;85;21116;-58
2021/10/22 07:30:44;;;;;;;14.10;9.18;;;;;;;18.69;60.11;100809.48;1652507;84;21064;-57
2021/10/22 07:33:14;;;;;;;15.48;9.40;;;;;;;18.83;59.58;100819.39;1657763;84;21663;-58
2021/10/22 07:35:41;;;;;;;11.95;9.03;;;;;;;18.90;59.33;100809.86;1660585;85;21068;-55
2021/10/22 07:38:12;;;;;;;17.92;9.40;;;;;;;18.99;59.19;100808.86;1636375;85;21129;-54
2021/10/22 07:40:41;;;;;;;11.63;9.73;;;;;;;19.09;58.99;100809.94;1671931;83;21407;-57
2021/10/22 07:43:08;;;;;;;14.18;8.83;;;;;;;19.17;58.63;100810.77;1672746;83;20996;-58
2021/10/22 07:45:37;;;;;;;12.30;8.38;;;;;;;19.25;58.38;100808.86;1684656;83;21089;-55
2021/10/22 07:48:04;;;;;;;11.90;8.48;;;;;;;19.37;57.99;100801.21;1682005;83;21082;-55
2021/10/22 07:50:32;;;;;;;13.90;9.03;;;;;;;19.51;57.52;100812.92;1667417;84;21115;-59
2021/10/22 07:52:59;;;;;;;14.80;8.45;;;;;;;19.62;57.01;100804.88;1666283;84;21079;-55
2021/10/22 07:55:26;;;;;;;12.05;8.65;;;;;;;19.70;56.49;100803.81;1665277;84;21329;-57
2021/10/22 07:57:53;;;;;;;13.68;8.25;;;;;;;19.83;55.97;100802.93;1664307;84;21195;-56
2021/10/22 08:00:26;;;;;;;10.43;8.15;;;;;;;19.94;55.49;100800.30;1680462;83;21131;-58
2021/10/22 08:02:53;;;;;;;15.90;8.30;;;;;;;20.06;55.04;100799.88;1676572;83;21636;-55
2021/10/22 08:05:21;;;;;;;11.53;8.68;;;;;;;20.18;55.09;100799.45;1683070;83;21402;-56
2021/10/22 08:07:49;;;;;;;12.30;8.40;;;;;;;20.25;55.06;100806.20;1677014;83;21532;-58
2021/10/22 08:10:16;;;;;;;10.58;8.08;;;;;;;20.33;55.20;100805.11;1664457;84;21143;-58
2021/10/22 08:12:43;;;;;;;16.07;9.93;;;;;;;20.46;54.99;100806.92;1660055;84;21872;-59
2021/10/22 08:15:10;;;;;;;11.53;8.88;;;;;;;20.57;54.67;100802.87;1650379;85;21135;-59
2021/10/22 08:17:37;;;;;;;11.88;8.33;;;;;;;20.68;54.13;100805.27;1659061;85;21088;-57
2021/10/22 08:20:09;;;;;;;12.82;8.65;;;;;;;20.74;53.88;100808.88;1658003;85;21079;-55
2021/10/22 08:22:35;;;;;;;11.63;9.10;;;;;;;20.76;53.44;100802.30;1662671;84;21636;-57
2021/10/22 08:25:12;;;;;;;14.23;9.43;;;;;;;20.79;53.34;100808.02;1674855;84;21072;-59
2021/10/22 08:27:46;;;;;;;14.05;9.20;;;;;;;20.81;53.31;100804.71;1672296;84;21427;-59
2021/10/22 08:30:22;;;;;;;11.10;8.60;;;;;;;20.86;53.35;100809.30;1650304;85;21104;-55
2021/10/22 08:32:55;;;;;;;12.95;8.85;;;;;;;20.99;52.96;100818.75;1652024;85;21147;-60
2021/10/22 08:35:25;;;;;;;11.15;8.23;;;;;;;21.11;52.59;100821.03;1644378;85;21127;-57
2021/10/22 08:37:54;;;;;;;10.82;8.33;;;;;;;21.15;52.51;100817.08;1670277;84;20930;-55
2021/10/22 08:40:21;;;;;;;11.25;7.70;;;;;;;21.21;52.21;100817.57;1652684;85;20965;-57
2021/10/22 08:42:51;;;;;;;14.90;8.55;;;;;;;21.31;51.71;100814.47;1634107;86;21171;-59
2021/10/22 08:45:18;;;;;;;16.30;8.65;;;;;;;21.42;51.35;100818.59;1623222;86;21127;-59
2021/10/22 08:47:46;;;;;;;11.73;8.23;;;;;;;21.55;50.87;100817.58;1651975;85;21644;-56
2021/10/22 08:50:17;;;;;;;12.80;7.83;;;;;;;21.66;50.33;100819.47;1646477;85;21096;-56
2021/10/22 08:52:44;;;;;;;11.63;7.53;;;;;;;21.80;49.71;100815.64;1650072;85;21368;-57
2021/10/22 08:55:12;;;;;;;9.60;7.15;;;;;;;21.92;48.67;100817.35;1658348;85;21041;-58
2021/10/22 08:57:43;;;;;;;8.05;6.35;;;;;;;22.03;47.92;100813.25;1627459;85;21163;-57
2021/10/22 09:00:13;;;;;;;12.28;6.95;;;;;;;22.14;47.19;100816.94;1652403;85;21581;-58
2021/10/22 09:02:41;;;;;;;11.65;7.12;;;;;;;22.22;46.33;100812.20;1629992;86;21544;-58
2021/10/22 09:05:18;;;;;;;10.10;6.22;;;;;;;22.30;45.56;100811.94;1649138;85;21116;-60
2021/10/22 09:07:57;;;;;;;9.20;6.70;;;;;;;22.37;45.09;100816.87;1626618;86;21107;-58
2021/10/22 09:10:28;;;;;;;11.75;7.40;;;;;;;22.44;44.49;100814.86;1663436;85;21452;-56
2021/10/22 09:13:08;;;;;;;15.93;7.53;;;;;;;22.49;44.15;100819.98;1660844;85;22946;-60
2021/10/22 09:15:40;;;;;;;11.80;6.45;;;;;;;22.52;43.83;100819.72;1664049;84;21083;-57
2021/10/22 09:18:23;;;;;;;9.20;7.12;;;;;;;22.64;43.74;100823.75;1661188;85;21085;-59
2021/10/22 09:20:59;;;;;;;10.72;7.00;;;;;;;22.72;43.44;100814.42;1662557;83;21107;-58
2021/10/22 09:23:32;;;;;;;12.25;7.28;;;;;;;22.72;43.36;100819.88;1662889;84;21332;-58
2021/10/22 09:26:19;;;;;;;11.88;7.70;;;;;;;22.73;43.44;100818.88;1661637;84;21865;-59
2021/10/22 09:28:46;;;;;;;12.13;7.47;;;;;;;22.74;43.23;100819.25;1659556;84;21085;-58
2021/10/22 09:31:14;;;;;;;10.05;7.37;;;;;;;22.75;42.69;100818.25;1662004;85;22333;-59
2021/10/22 09:33:59;;;;;;;10.68;7.30;;;;;;;22.77;42.49;100814.88;1663571;85;21139;-59
2021/10/22 09:36:39;;;;;;;10.30;7.17;;;;;;;22.81;42.25;100809.52;1660297;85;21501;-60
2021/10/22 09:39:15;;;;;;;11.20;7.20;;;;;;;22.85;41.68;100806.87;1658847;84;21122;-57
2021/10/22 09:41:53;;;;;;;9.60;7.47;;;;;;;22.85;41.17;100801.41;1661666;84;21198;-58
2021/10/22 09:44:39;;;;;;;11.43;7.50;;;;;;;22.84;41.06;100796.94;1619901;86;21148;-57
2021/10/22 09:47:11;;;;;;;9.00;7.00;;;;;;;22.87;40.97;100804.02;1604422;86;21070;-59
2021/10/22 09:49:45;;;;;;;10.85;7.72;;;;;;;22.88;40.67;100797.07;1668381;84;21123;-58
2021/10/22 09:52:27;;;;;;;11.22;7.35;;;;;;;22.94;40.22;100798.38;1668965;83;21487;-58
2021/10/22 09:55:12;;;;;;;8.53;6.50;;;;;;;22.99;39.33;100800.72;1670690;84;22096;-57
2021/10/22 09:57:45;;;;;;;12.93;8.05;;;;;;;23.04;39.65;100805.28;1667786;85;21180;-58
2021/10/22 10:00:21;;;;;;;16.25;8.83;;;;;;;23.10;39.64;100800.66;1672349;85;21016;-58
2021/10/22 10:02:50;;;;;;;15.72;9.63;;;;;;;23.09;40.41;100794.80;1670268;85;21101;-56
2021/10/22 10:05:18;;;;;;;11.53;8.43;;;;;;;23.08;40.88;100798.53;1671876;83;21900;-55
2021/10/22 10:07:46;;;;;;;11.75;8.55;;;;;;;23.07;40.67;100801.42;1670560;85;21525;-60
2021/10/22 10:10:14;;;;;;;13.45;8.08;;;;;;;23.00;40.26;100801.09;1669135;85;21450;-59
2021/10/22 10:12:41;;;;;;;15.05;8.40;;;;;;;22.95;40.53;100797.38;1671068;83;21638;-60
2021/10/22 10:15:10;;;;;;;16.40;9.45;;;;;;;22.94;40.37;100798.89;1672230;85;21454;-60
2021/10/22 10:17:42;;;;;;;15.75;9.43;;;;;;;22.93;40.19;100794.43;1673499;85;21100;-60
2021/10/22 10:20:10;;;;;;;17.32;11.00;;;;;;;22.97;39.93;100794.00;1666582;83;21128;-58
2021/10/22 10:22:42;;;;;;;19.12;11.12;;;;;;;22.98;40.07;100786.69;1671483;84;21096;-58
2021/10/22 10:25:07;;;;;;;17.57;11.45;;;;;;;22.96;39.61;100786.80;1668675;84;21462;-60
2021/10/22 10:27:54;;;;;;;17.25;9.10;;;;;;;22.96;39.54;100791.42;1614217;85;20992;-58
2021/10/22 10:30:31;;;;;;;11.80;8.48;;;;;;;22.99;39.40;100793.88;1670565;84;21504;-58
2021/10/22 10:32:58;;;;;;;18.05;7.95;;;;;;;23.03;39.24;100803.06;1653043;84;21113;-58
2021/10/22 10:35:38;;;;;;;14.03;8.70;;;;;;;23.03;39.28;100800.33;1657620;85;21632;-58
2021/10/22 10:38:08;;;;;;;18.07;10.13;;;;;;;23.01;39.49;100797.34;1628804;86;21108;-57
2021/10/22 10:40:34;;;;;;;13.75;9.13;;;;;;;23.05;39.71;100796.08;1665790;85;21049;-58
2021/10/22 10:43:04;;;;;;;14.87;9.75;;;;;;;23.05;39.57;100789.23;1665364;85;21503;-58
2021/10/22 10:45:39;;;;;;;13.70;9.45;;;;;;;22.99;39.62;100789.30;1668957;84;21012;-59
2021/10/22 10:48:18;;;;;;;11.10;8.48;;;;;;;22.97;39.64;100794.52;1664740;85;20997;-58
2021/10/22 10:51:07;;;;;;;12.60;9.00;;;;;;;22.95;39.91;100793.80;1679339;84;21099;-58
2021/10/22 10:53:39;;;;;;;15.65;9.03;;;;;;;22.93;40.34;100788.96;1680886;83;21016;-58
2021/10/22 10:56:23;;;;;;;13.53;8.93;;;;;;;22.94;40.91;100778.39;1681078;83;21131;-59
2021/10/22 10:58:50;;;;;;;13.08;8.88;;;;;;;22.99;41.31;100767.91;1667198;85;21589;-58
2021/10/22 11:01:24;;;;;;;12.78;8.98;;;;;;;22.98;41.36;100767.55;1688852;82;21286;-58
2021/10/22 11:03:53;;;;;;;12.15;8.05;;;;;;;22.99;41.25;100774.75;1689739;83;21041;-58
2021/10/22 11:06:51;;;;;;;11.57;8.50;;;;;;;23.01;41.07;100772.74;1670590;85;21009;-58
2021/10/22 11:09:43;;;;;;;10.88;7.62;;;;;;;23.06;41.20;100767.73;1659266;85;21096;-58
2021/10/22 11:12:06;;;;;;;11.93;7.45;;;;;;;23.13;40.71;100768.94;1660578;85;21666;-59
2021/10/22 11:14:48;;;;;;;12.45;8.25;;;;;;;23.18;40.28;100773.50;1665436;84;21423;-58
2021/10/22 11:17:26;;;;;;;10.30;7.45;;;;;;;23.22;40.13;100770.48;1687133;82;21044;-59
2021/10/22 11:19:56;;;;;;;9.35;6.53;;;;;;;23.23;39.54;100761.28;1654888;85;21104;-56
2021/10/22 11:22:25;;;;;;;7.60;6.12;;;;;;;23.22;38.89;100771.85;1694716;82;23122;-55
2021/10/22 11:24:52;;;;;;;9.35;6.22;;;;;;;23.25;38.17;100760.64;1694963;82;21079;-55
2021/10/22 11:27:22;;;;;;;13.98;6.42;;;;;;;23.22;38.25;100756.33;1695374;82;21063;-57